createdAt,value
2023-02-15T00:01:46.486Z,39.93
2023-02-15T00:04:15.246Z,39.97
2023-02-15T00:06:41.749Z,46.90
2023-02-15T00:09:09.469Z,42.63
2023-02-15T00:11:42.049Z,42.88
2023-02-15T00:14:12.152Z,43.43
2023-02-15T00:16:40.151Z,39.83
2023-02-15T00:19:07.046Z,41.30
2023-02-15T00:21:34.815Z,45.30
2023-02-15T00:24:03.300Z,45.40
2023-02-15T00:26:30.250Z,45.07
2023-02-15T00:28:57.299Z,44.35
2023-02-15T00:31:23.869Z,43.67
2023-02-15T00:33:50.428Z,41.78
2023-02-15T00:36:17.297Z,42.72
2023-02-15T00:38:44.002Z,42.60
2023-02-15T00:41:11.275Z,42.10
2023-02-15T00:43:38.110Z,45.70
2023-02-15T00:46:06.124Z,43.13
2023-02-15T00:48:32.685Z,42.75
2023-02-15T00:51:00.438Z,39.33
2023-02-15T00:53:28.041Z,44.38
2023-02-15T00:55:54.516Z,41.30
2023-02-15T00:58:22.432Z,39.20
2023-02-15T01:00:49.264Z,41.72
2023-02-15T01:03:18.023Z,41.43
2023-02-15T01:05:44.596Z,39.97
2023-02-15T01:08:11.155Z,40.90
2023-02-15T01:10:38.530Z,44.15
2023-02-15T01:13:05.692Z,37.60
2023-02-15T01:15:36.452Z,41.30
2023-02-15T01:18:03.077Z,41.65
2023-02-15T01:20:30.457Z,39.47
2023-02-15T01:22:58.119Z,41.42
2023-02-15T01:25:25.511Z,40.15
2023-02-15T01:27:51.955Z,38.70
2023-02-15T01:30:18.804Z,44.45
2023-02-15T01:32:45.366Z,42.08
2023-02-15T01:35:12.842Z,40.83
2023-02-15T01:37:39.297Z,40.30
2023-02-15T01:40:09.560Z,41.57
2023-02-15T01:42:36.401Z,38.35
2023-02-15T01:45:05.753Z,41.40
2023-02-15T01:47:41.918Z,41.50
2023-02-15T01:50:12.341Z,43.15
2023-02-15T01:52:45.015Z,40.27
2023-02-15T01:55:13.583Z,40.72
2023-02-15T01:57:40.777Z,40.38
2023-02-15T02:00:09.335Z,40.92
2023-02-15T02:02:44.593Z,40.10
2023-02-15T02:05:12.035Z,41.30
2023-02-15T02:07:42.003Z,39.88
2023-02-15T02:10:10.541Z,37.65
2023-02-15T02:12:39.658Z,40.40
2023-02-15T02:15:09.382Z,39.33
2023-02-15T02:17:40.711Z,37.20
2023-02-15T02:20:22.668Z,39.08
2023-02-15T02:23:13.790Z,40.05
2023-02-15T02:25:49.560Z,41.45
2023-02-15T02:28:28.245Z,43.35
2023-02-15T02:31:30.362Z,36.97
2023-02-15T02:34:29.142Z,40.67
2023-02-15T02:37:06.891Z,38.22
2023-02-15T02:39:59.409Z,41.72
2023-02-15T02:42:36.257Z,35.92
2023-02-15T02:45:16.385Z,38.13
2023-02-15T02:47:46.033Z,45.47
2023-02-15T02:50:24.882Z,40.42
2023-02-15T02:52:53.857Z,37.33
2023-02-15T02:55:44.356Z,38.50
2023-02-15T02:58:14.442Z,38.60
2023-02-15T03:00:49.693Z,35.97
2023-02-15T03:03:26.375Z,39.33
2023-02-15T03:05:57.806Z,38.10
2023-02-15T03:08:29.023Z,37.72
2023-02-15T03:10:59.222Z,38.13
2023-02-15T03:13:25.914Z,36.35
2023-02-15T03:16:13.274Z,41.30
2023-02-15T03:18:58.811Z,37.20
2023-02-15T03:21:32.979Z,36.78
2023-02-15T03:24:06.797Z,35.17
2023-02-15T03:26:35.190Z,38.15
2023-02-15T03:29:04.166Z,37.75
2023-02-15T03:31:33.872Z,41.92
2023-02-15T03:34:05.014Z,36.33
2023-02-15T03:36:44.715Z,37.67
2023-02-15T03:39:34.803Z,37.25
2023-02-15T03:42:01.234Z,36.15
2023-02-15T03:44:31.357Z,36.45
2023-02-15T03:47:12.634Z,40.20
2023-02-15T03:49:49.517Z,37.40
2023-02-15T03:52:16.897Z,39.13
2023-02-15T03:54:44.383Z,37.25
2023-02-15T03:57:37.405Z,40.30
2023-02-15T04:00:33.379Z,35.22
2023-02-15T04:03:02.827Z,35.80
2023-02-15T04:05:29.359Z,33.83
2023-02-15T04:07:55.824Z,37.53
2023-02-15T04:10:41.099Z,36.80
2023-02-15T04:13:07.645Z,35.53
2023-02-15T04:15:52.854Z,34.73
2023-02-15T04:18:19.351Z,37.50
2023-02-15T04:21:05.406Z,36.75
2023-02-15T04:23:51.407Z,37.97
2023-02-15T04:26:18.070Z,34.60
2023-02-15T04:28:44.596Z,36.00
2023-02-15T04:31:11.213Z,31.40
2023-02-15T04:33:37.811Z,34.53
2023-02-15T04:36:06.057Z,35.80
2023-02-15T04:38:32.625Z,32.72
2023-02-15T04:40:59.084Z,31.80
2023-02-15T04:43:25.630Z,37.08
2023-02-15T04:45:52.247Z,33.55
2023-02-15T04:48:19.142Z,33.28
2023-02-15T04:50:45.859Z,32.28
2023-02-15T04:53:12.699Z,31.70
2023-02-15T04:55:39.197Z,32.65
2023-02-15T04:58:05.730Z,33.17
2023-02-15T05:00:32.232Z,31.40
2023-02-15T05:02:58.882Z,31.75
2023-02-15T05:05:25.313Z,32.90
2023-02-15T05:07:51.954Z,30.23
2023-02-15T05:10:18.572Z,33.55
2023-02-15T05:12:45.082Z,34.10
2023-02-15T05:15:11.956Z,32.45
2023-02-15T05:17:38.378Z,29.67
2023-02-15T05:20:05.668Z,32.03
2023-02-15T05:22:32.148Z,30.45
2023-02-15T05:25:17.208Z,28.10
2023-02-15T05:28:04.361Z,30.35
2023-02-15T05:30:31.720Z,31.80
2023-02-15T05:32:58.414Z,31.02
2023-02-15T05:35:25.023Z,30.60
2023-02-15T05:37:51.509Z,30.88
2023-02-15T05:40:18.012Z,29.27
2023-02-15T05:42:44.460Z,27.30
2023-02-15T05:45:11.365Z,31.80
2023-02-15T05:47:37.957Z,28.73
2023-02-15T05:50:04.803Z,30.30
2023-02-15T05:52:31.329Z,29.80
2023-02-15T05:54:59.016Z,30.93
2023-02-15T05:57:25.533Z,29.58
2023-02-15T05:59:52.180Z,31.92
2023-02-15T06:02:18.897Z,31.02
2023-02-15T06:04:45.507Z,31.35
2023-02-15T06:07:13.226Z,30.27
2023-02-15T06:09:40.168Z,28.70
2023-02-15T06:12:06.661Z,32.45
2023-02-15T06:14:33.158Z,31.38
2023-02-15T06:16:59.763Z,30.73
2023-02-15T06:19:26.333Z,29.53
2023-02-15T06:21:52.903Z,31.17
2023-02-15T06:24:19.482Z,29.35
2023-02-15T06:26:45.979Z,30.17
2023-02-15T06:29:12.450Z,30.90
2023-02-15T06:31:39.022Z,29.00
2023-02-15T06:34:05.563Z,31.13
2023-02-15T06:36:32.689Z,31.45
2023-02-15T06:38:59.351Z,30.67
2023-02-15T06:41:25.932Z,28.58
2023-02-15T06:43:52.497Z,29.57
2023-02-15T06:46:19.102Z,30.52
2023-02-15T06:48:45.686Z,34.50
2023-02-15T06:51:12.585Z,31.92
2023-02-15T06:53:39.186Z,28.13
2023-02-15T06:56:07.708Z,30.00
2023-02-15T06:58:34.965Z,30.35
2023-02-15T07:01:01.517Z,31.67
2023-02-15T07:03:28.111Z,34.88
2023-02-15T07:05:59.848Z,29.65
2023-02-15T07:08:27.566Z,31.93
2023-02-15T07:10:55.198Z,31.67
2023-02-15T07:13:21.730Z,33.00
2023-02-15T07:15:48.896Z,31.98
2023-02-15T07:18:15.412Z,38.13
2023-02-15T07:20:42.623Z,37.23
2023-02-15T07:23:09.424Z,34.42
2023-02-15T07:25:35.956Z,41.75
2023-02-15T07:28:04.871Z,38.70
2023-02-15T07:30:31.844Z,38.17
2023-02-15T07:33:17.665Z,37.03
2023-02-15T07:35:48.684Z,36.50
2023-02-15T07:38:15.586Z,37.00
2023-02-15T07:40:42.118Z,37.70
2023-02-15T07:43:08.793Z,38.38
2023-02-15T07:45:35.272Z,41.23
2023-02-15T07:48:02.544Z,42.53
2023-02-15T07:50:29.074Z,49.10
2023-02-15T07:52:55.568Z,41.65
2023-02-15T07:55:22.293Z,42.13
2023-02-15T07:57:50.610Z,47.47
2023-02-15T08:00:19.267Z,40.22
2023-02-15T08:03:10.679Z,43.47
2023-02-15T08:05:37.590Z,46.53
2023-02-15T08:08:04.380Z,41.72
2023-02-15T08:10:50.043Z,42.40
2023-02-15T08:13:16.536Z,47.90
2023-02-15T08:15:52.100Z,45.88
2023-02-15T08:18:18.854Z,45.28
2023-02-15T08:20:50.832Z,47.85
2023-02-15T08:23:17.253Z,53.13
2023-02-15T08:25:43.766Z,48.83
2023-02-15T08:28:10.277Z,52.55
2023-02-15T08:30:36.820Z,43.58
2023-02-15T08:33:03.607Z,44.90
2023-02-15T08:35:30.120Z,47.77
2023-02-15T08:37:56.671Z,45.88
2023-02-15T08:40:23.173Z,46.20
2023-02-15T08:42:49.685Z,49.05
2023-02-15T08:45:16.250Z,44.92
2023-02-15T08:47:43.068Z,43.70
2023-02-15T08:50:09.976Z,43.70
2023-02-15T08:52:36.682Z,48.30
2023-02-15T08:55:03.334Z,44.97
2023-02-15T08:57:30.179Z,47.45
2023-02-15T08:59:56.601Z,46.00
2023-02-15T09:02:23.332Z,51.17
2023-02-15T09:04:49.874Z,47.30
2023-02-15T09:07:17.992Z,51.17
2023-02-15T09:09:44.967Z,48.15
2023-02-15T09:12:11.476Z,48.97
2023-02-15T09:14:37.971Z,44.28
2023-02-15T09:17:05.007Z,45.80
2023-02-15T09:19:31.523Z,45.00
2023-02-15T09:21:59.067Z,42.78
2023-02-15T09:24:25.485Z,41.93
2023-02-15T09:26:52.003Z,46.60
2023-02-15T09:29:19.217Z,45.90
2023-02-15T09:31:51.021Z,48.30
2023-02-15T09:34:20.677Z,46.92
2023-02-15T09:36:47.902Z,45.17
2023-02-15T09:39:17.571Z,44.10
2023-02-15T09:41:53.375Z,43.03
2023-02-15T09:45:02.821Z,42.75
2023-02-15T09:47:57.631Z,42.67
2023-02-15T09:50:54.221Z,39.97
2023-02-15T09:53:39.541Z,45.42
2023-02-15T09:56:38.327Z,42.97
2023-02-15T09:59:45.519Z,41.25
2023-02-15T10:02:39.710Z,43.85
2023-02-15T10:05:15.194Z,43.73
2023-02-15T10:07:50.517Z,38.05
2023-02-15T10:10:32.269Z,41.17
2023-02-15T10:13:14.399Z,41.58
2023-02-15T10:15:53.651Z,40.75
2023-02-15T10:18:32.330Z,41.47
2023-02-15T10:21:24.142Z,41.33
2023-02-15T10:24:27.065Z,37.60
2023-02-15T10:26:59.687Z,41.88
2023-02-15T10:29:52.540Z,38.80
2023-02-15T10:32:24.415Z,36.27
2023-02-15T10:35:02.136Z,41.17
2023-02-15T10:37:47.442Z,35.85
2023-02-15T10:40:35.838Z,40.47
2023-02-15T10:43:29.006Z,38.42
2023-02-15T10:46:16.888Z,39.63
2023-02-15T10:48:56.628Z,36.95
2023-02-15T10:51:53.723Z,37.70
2023-02-15T10:54:20.194Z,40.45
2023-02-15T10:56:55.595Z,41.20
2023-02-15T10:59:31.148Z,38.83
2023-02-15T11:02:15.761Z,37.90
2023-02-15T11:04:48.599Z,38.25
2023-02-15T11:07:35.622Z,38.03
2023-02-15T11:10:19.487Z,40.40
2023-02-15T11:12:49.057Z,39.30
2023-02-15T11:15:53.935Z,38.45
2023-02-15T11:18:31.364Z,42.45
2023-02-15T11:21:04.043Z,39.65
2023-02-15T11:23:34.719Z,36.88
2023-02-15T11:26:04.558Z,41.53
2023-02-15T11:28:45.935Z,39.83
2023-02-15T11:31:18.481Z,39.72
2023-02-15T11:33:48.896Z,38.65
2023-02-15T11:36:21.227Z,35.65
2023-02-15T11:38:51.842Z,37.53
2023-02-15T11:41:22.608Z,37.03
2023-02-15T11:43:59.096Z,39.78
2023-02-15T11:46:25.943Z,37.75
2023-02-15T11:48:52.641Z,31.40
2023-02-15T11:51:24.088Z,35.93
2023-02-15T11:53:51.833Z,34.15
2023-02-15T11:56:24.229Z,36.80
2023-02-15T11:59:10.569Z,36.20
2023-02-15T12:01:47.940Z,35.90
2023-02-15T12:04:29.691Z,33.30
2023-02-15T12:07:02.693Z,35.67
2023-02-15T12:09:35.522Z,37.53
2023-02-15T12:12:23.342Z,34.28
2023-02-15T12:14:55.414Z,37.58
2023-02-15T12:17:24.832Z,39.43
2023-02-15T12:19:54.246Z,36.28
2023-02-15T12:22:20.748Z,35.88
2023-02-15T12:24:49.733Z,32.35
2023-02-15T12:27:19.063Z,35.22
2023-02-15T12:29:51.268Z,32.87
2023-02-15T12:32:22.845Z,31.77
2023-02-15T12:34:51.155Z,39.92
2023-02-15T12:37:22.385Z,33.03
2023-02-15T12:40:00.398Z,32.05
2023-02-15T12:42:29.136Z,33.13
2023-02-15T12:44:59.458Z,34.90
2023-02-15T12:47:30.575Z,35.90
2023-02-15T12:50:22.271Z,31.85
2023-02-15T12:52:51.340Z,36.03
2023-02-15T12:55:27.133Z,32.40
2023-02-15T12:58:19.316Z,33.58
2023-02-15T13:00:46.818Z,30.70
2023-02-15T13:03:22.548Z,34.85
2023-02-15T13:05:52.736Z,34.13
2023-02-15T13:08:28.862Z,31.93
2023-02-15T13:11:01.722Z,33.67
2023-02-15T13:13:35.332Z,31.67
2023-02-15T13:16:14.025Z,33.50
2023-02-15T13:18:44.833Z,36.30
2023-02-15T13:21:13.138Z,36.37
2023-02-15T13:23:45.162Z,31.83
2023-02-15T13:26:21.444Z,33.15
2023-02-15T13:28:52.583Z,35.25
2023-02-15T13:31:21.057Z,31.95
2023-02-15T13:33:52.195Z,30.57
2023-02-15T13:36:29.755Z,31.02
2023-02-15T13:39:04.658Z,36.53
2023-02-15T13:41:36.763Z,32.28
2023-02-15T13:44:22.330Z,36.65
2023-02-15T13:47:36.793Z,33.97
2023-02-15T13:50:20.495Z,29.42
2023-02-15T13:53:00.349Z,31.33
2023-02-15T13:55:39.742Z,35.90
2023-02-15T13:58:12.128Z,29.42
2023-02-15T14:01:03.194Z,33.80
2023-02-15T14:03:53.360Z,32.03
2023-02-15T14:06:54.125Z,31.17
2023-02-15T14:09:29.539Z,32.90
2023-02-15T14:11:59.020Z,34.53
2023-02-15T14:14:28.568Z,34.17
2023-02-15T14:17:36.941Z,33.78
2023-02-15T14:20:16.126Z,32.15
2023-02-15T14:22:50.392Z,35.60
2023-02-15T14:25:29.527Z,39.60
2023-02-15T14:28:12.256Z,37.90
2023-02-15T14:30:45.645Z,32.97
2023-02-15T14:33:15.188Z,34.88
2023-02-15T14:35:43.754Z,35.10
2023-02-15T14:38:10.364Z,33.50
2023-02-15T14:41:05.079Z,36.53
2023-02-15T14:43:50.128Z,36.78
2023-02-15T14:46:24.845Z,35.80
2023-02-15T14:48:57.269Z,37.92
2023-02-15T14:51:52.634Z,33.97
2023-02-15T14:54:21.900Z,36.10
2023-02-15T14:57:03.684Z,34.28
2023-02-15T14:59:36.282Z,36.72
2023-02-15T15:02:08.760Z,40.63
2023-02-15T15:04:39.019Z,34.65
2023-02-15T15:07:20.396Z,35.17
2023-02-15T15:09:59.184Z,33.08
2023-02-15T15:12:25.606Z,34.85
2023-02-15T15:14:54.353Z,36.58
2023-02-15T15:17:33.533Z,39.25
2023-02-15T15:20:14.576Z,36.57
2023-02-15T15:22:43.044Z,39.28
2023-02-15T15:25:28.156Z,41.15
2023-02-15T15:27:55.684Z,43.70
2023-02-15T15:30:22.503Z,33.92
2023-02-15T15:32:54.862Z,36.50
2023-02-15T15:35:38.416Z,40.95
2023-02-15T15:38:42.652Z,42.55
2023-02-15T15:41:36.302Z,37.33
2023-02-15T15:44:40.358Z,36.05
2023-02-15T15:47:36.338Z,36.10
2023-02-15T15:50:14.632Z,37.55
2023-02-15T15:52:54.337Z,36.80
2023-02-15T15:55:24.579Z,36.10
2023-02-15T15:57:54.299Z,38.20
2023-02-15T16:00:49.772Z,43.33
2023-02-15T16:03:21.182Z,39.85
2023-02-15T16:05:49.151Z,39.58
2023-02-15T16:08:27.452Z,43.53
2023-02-15T16:10:54.104Z,40.42
2023-02-15T16:13:21.444Z,41.23
2023-02-15T16:15:53.352Z,43.42
2023-02-15T16:18:26.061Z,41.08
2023-02-15T16:20:59.159Z,39.42
2023-02-15T16:23:39.151Z,39.20
2023-02-15T16:26:14.102Z,40.37
2023-02-15T16:28:40.907Z,41.97
2023-02-15T16:31:15.623Z,40.03
2023-02-15T16:33:44.038Z,38.95
2023-02-15T16:36:27.652Z,41.08
2023-02-15T16:38:54.131Z,40.93
2023-02-15T16:41:26.617Z,41.92
2023-02-15T16:43:54.885Z,44.92
2023-02-15T16:46:29.055Z,43.70
2023-02-15T16:48:59.481Z,40.70
2023-02-15T16:51:29.269Z,39.30
2023-02-15T16:53:57.569Z,40.10
2023-02-15T16:56:27.338Z,41.03
2023-02-15T16:58:56.387Z,42.15
2023-02-15T17:01:25.760Z,43.97
2023-02-15T17:04:13.333Z,42.53
2023-02-15T17:06:40.055Z,39.55
2023-02-15T17:09:14.379Z,41.45
2023-02-15T17:11:43.269Z,47.45
2023-02-15T17:14:10.523Z,41.20
2023-02-15T17:16:42.500Z,46.03
2023-02-15T17:19:14.323Z,41.15
2023-02-15T17:21:52.503Z,40.20
2023-02-15T17:24:26.442Z,45.55
2023-02-15T17:27:01.472Z,47.10
2023-02-15T17:29:35.063Z,44.77
2023-02-15T17:32:02.917Z,43.67
2023-02-15T17:35:11.502Z,46.47
2023-02-15T17:37:37.977Z,45.60
2023-02-15T17:40:21.533Z,49.78
2023-02-15T17:42:48.083Z,50.60
2023-02-15T17:45:15.531Z,42.65
2023-02-15T17:47:42.753Z,48.35
2023-02-15T17:50:19.448Z,44.92
2023-02-15T17:52:46.197Z,47.78
2023-02-15T17:55:37.547Z,47.00
2023-02-15T17:58:10.542Z,52.25
2023-02-15T18:01:07.827Z,54.67
2023-02-15T18:04:10.936Z,54.97
2023-02-15T18:06:59.537Z,55.85
2023-02-15T18:09:45.020Z,57.33
2023-02-15T18:12:21.961Z,58.70
2023-02-15T18:14:49.466Z,59.33
2023-02-15T18:17:17.480Z,51.28
2023-02-15T18:19:45.382Z,51.60
2023-02-15T18:22:14.298Z,55.20
2023-02-15T18:24:41.053Z,47.40
2023-02-15T18:27:07.576Z,52.30
2023-02-15T18:29:34.099Z,47.88
2023-02-15T18:32:01.467Z,43.50
2023-02-15T18:34:39.899Z,45.73
2023-02-15T18:37:11.960Z,47.45
2023-02-15T18:39:46.593Z,45.28
2023-02-15T18:42:44.406Z,44.40
2023-02-15T18:45:32.426Z,43.88
2023-02-15T18:47:58.993Z,43.50
2023-02-15T18:50:29.137Z,45.95
2023-02-15T18:52:55.671Z,47.80
2023-02-15T18:55:24.898Z,46.60
2023-02-15T18:57:54.273Z,44.72
2023-02-15T19:00:32.739Z,41.60
2023-02-15T19:03:01.482Z,46.58
2023-02-15T19:05:29.650Z,42.50
2023-02-15T19:07:58.539Z,47.85
2023-02-15T19:10:26.897Z,56.58
2023-02-15T19:12:54.245Z,47.17
2023-02-15T19:15:30.685Z,50.58
2023-02-15T19:17:57.317Z,44.45
2023-02-15T19:20:31.814Z,49.17
2023-02-15T19:23:00.273Z,49.28
2023-02-15T19:25:29.999Z,56.40
2023-02-15T19:27:58.036Z,50.97
2023-02-15T19:30:28.577Z,48.70
2023-02-15T19:32:58.510Z,43.80
2023-02-15T19:35:29.316Z,47.17
2023-02-15T19:37:59.205Z,46.07
2023-02-15T19:40:29.264Z,48.38
2023-02-15T19:42:56.247Z,47.17
2023-02-15T19:45:25.451Z,44.45
2023-02-15T19:47:53.913Z,47.72
2023-02-15T19:50:29.874Z,45.97
2023-02-15T19:52:57.617Z,47.47
2023-02-15T19:55:27.550Z,49.03
2023-02-15T19:57:55.711Z,48.35
2023-02-15T20:00:25.741Z,47.40
2023-02-15T20:02:53.383Z,48.00
2023-02-15T20:05:21.830Z,52.97
2023-02-15T20:07:50.609Z,49.58
2023-02-15T20:10:19.669Z,46.60
2023-02-15T20:12:47.645Z,52.22
2023-02-15T20:15:24.556Z,50.33
2023-02-15T20:17:51.432Z,51.50
2023-02-15T20:20:18.716Z,53.83
2023-02-15T20:22:48.198Z,48.15
2023-02-15T20:25:18.042Z,54.08
2023-02-15T20:27:44.497Z,50.73
2023-02-15T20:30:17.216Z,43.30
2023-02-15T20:32:43.800Z,51.85
2023-02-15T20:35:16.648Z,46.65
2023-02-15T20:37:45.800Z,51.45
2023-02-15T20:40:33.920Z,49.77
2023-02-15T20:43:00.994Z,54.13
2023-02-15T20:45:32.506Z,48.42
2023-02-15T20:48:01.450Z,44.40
2023-02-15T20:50:32.957Z,49.03
2023-02-15T20:53:02.535Z,46.83
2023-02-15T20:55:31.310Z,49.15
2023-02-15T20:57:59.145Z,46.95
2023-02-15T21:00:28.319Z,49.55
2023-02-15T21:03:00.421Z,45.70
2023-02-15T21:05:28.475Z,46.07
2023-02-15T21:07:55.071Z,49.80
2023-02-15T21:10:23.638Z,46.60
2023-02-15T21:12:51.249Z,49.92
2023-02-15T21:15:35.595Z,50.35
2023-02-15T21:18:05.587Z,49.90
2023-02-15T21:20:33.421Z,47.10
2023-02-15T21:23:02.791Z,46.70
2023-02-15T21:25:32.971Z,44.60
2023-02-15T21:27:59.591Z,47.88
2023-02-15T21:30:27.239Z,46.13
2023-02-15T21:32:54.105Z,46.42
2023-02-15T21:35:20.682Z,43.95
2023-02-15T21:37:50.062Z,46.67
2023-02-15T21:40:22.937Z,49.63
2023-02-15T21:43:08.666Z,46.07
2023-02-15T21:45:53.722Z,45.15
2023-02-15T21:48:21.780Z,46.20
2023-02-15T21:51:14.506Z,48.70
2023-02-15T21:53:45.833Z,50.13
2023-02-15T21:56:21.510Z,54.00
2023-02-15T21:58:48.515Z,50.38
2023-02-15T22:01:21.312Z,55.78
2023-02-15T22:03:48.204Z,51.45
2023-02-15T22:06:14.805Z,51.50
2023-02-15T22:08:41.626Z,47.43
2023-02-15T22:11:14.012Z,53.42
2023-02-15T22:13:42.101Z,57.90
2023-02-15T22:16:15.819Z,49.92
2023-02-15T22:18:42.667Z,47.83
2023-02-15T22:21:10.289Z,46.33
2023-02-15T22:23:37.269Z,45.45
2023-02-15T22:26:11.686Z,51.85
2023-02-15T22:28:39.922Z,45.60
2023-02-15T22:31:18.622Z,45.03
2023-02-15T22:33:45.448Z,46.57
2023-02-15T22:36:27.008Z,47.67
2023-02-15T22:38:54.578Z,52.17
2023-02-15T22:41:30.369Z,49.03
2023-02-15T22:43:57.558Z,45.85
2023-02-15T22:46:25.120Z,51.47
2023-02-15T22:48:52.201Z,52.20
2023-02-15T22:51:23.850Z,49.10
2023-02-15T22:53:52.244Z,45.95
2023-02-15T22:56:23.259Z,46.45
2023-02-15T22:58:50.511Z,49.80
2023-02-15T23:01:29.042Z,44.05
2023-02-15T23:03:55.580Z,50.88
2023-02-15T23:06:22.086Z,49.30
2023-02-15T23:08:48.681Z,49.58
2023-02-15T23:11:15.180Z,44.57
2023-02-15T23:13:41.911Z,51.75
2023-02-15T23:16:14.430Z,46.88
2023-02-15T23:18:43.152Z,46.90
2023-02-15T23:21:19.249Z,46.72
2023-02-15T23:23:49.031Z,48.47
2023-02-15T23:26:19.103Z,46.55
2023-02-15T23:28:46.184Z,47.30
2023-02-15T23:31:25.356Z,45.20
2023-02-15T23:33:53.014Z,46.03
2023-02-15T23:36:28.754Z,46.73
2023-02-15T23:38:57.191Z,47.08
2023-02-15T23:41:30.112Z,48.15
2023-02-15T23:44:00.371Z,46.15
2023-02-15T23:46:52.998Z,48.10
2023-02-15T23:49:19.980Z,44.87
2023-02-15T23:51:55.152Z,45.33
2023-02-15T23:54:24.751Z,46.55
2023-02-15T23:56:54.157Z,49.38
2023-02-15T23:59:26.887Z,47.60
